Terminal Aerodrome Forecast
Issued by NWS Sterling, VA

Current Version | Previous Version | Text Only | Print | Product List | Glossary Off
Versions: 1 2 3 4 5 6 7 8 9 10 11 12 13 14 15 16 17 18 19 20 21 22 23 24 25

000
FTUS41 KLWX 211725
TAFDCA
TAF
KDCA 211725Z 2118/2218 17009KT P6SM FEW030 SCT250
     FM212000 19009KT P6SM VCTS BKN040CB
     FM220300 18006KT P6SM BKN050
     FM220700 20005KT P6SM SCT050
     FM221000 20004KT P6SM SCT250
     FM221500 20008KT P6SM SCT250=

USA.gov is the U.S. government's official web portal to all federal, state and local government web resources and services.